Ekimchan, Russia
Current Conditions -  °F | °C
As of 3:00 AM on Thursday 29 Jan 2015 (Local Time) from UHBB Reporting Station
Clear Clear  
Wind Chill: -10°   Ceiling: Unl
Heat Index:   Visibility: 6mi
Dew Point: -6°   Wind: 4mph
Humidity: 78%   Direction: NA
Pressure: 30.18"   Gusts: NA
Location:  53.07°N, 132.97°E
Report Text: UHBB 281800Z VRB02MPS CAVOK M18/M21 Q1022 NOSIG RMK QFE749/099836410260
Loading
Personal Weather Stations






























Interactive Weather Map New forecast layout! Learn more

10-Day Weather Forecast

Advertisements
Track Severe Weather on mobile